ATMO2: Muddy Boggy Creek at Atoka

                                SHEF ID:       ATMO2     Muddy Boggy Creek at Atoka, OK
STATION TYPE:

PRECIP STAGE RIV-FLOW VOLTAGE BAT-LOAD
in ft cfs volt volt
Ccp-Rev Ccp-Rev Ccp-Rev Ccp-Rev Ccp-Rev
(America/Chicago)
04/28 00:00 0.00 17.51 506 12.80 12.55
04/28 01:00 0.00 17.42 484 12.78 12.54
04/28 02:00 0.00 17.32 460 12.78 12.53
04/28 03:00 0.00 17.24 441 12.77 12.53
04/28 04:00 0.00 17.16 422 12.77 12.53
04/28 05:00 0.00 17.08 403 12.77 12.53
04/28 06:00 0.00 17.01 386 12.76 12.52
04/28 07:00 0.00 16.95 371 12.77 12.52
04/28 08:00 0.00 16.88 355 12.81 12.54
04/28 09:00 0.00 16.82 340 12.99 12.67
04/28 10:00 0.00 16.76 326 12.87 12.63
04/28 11:00 0.02 16.71 314 12.93 12.60
04/28 12:00 0.00 16.66 302 13.10 12.73
04/28 13:00 0.00 16.61 290 13.39 12.70
04/28 14:00 0.00 16.56 278 13.36 12.68
04/28 15:00 0.00 16.52 268 12.89 12.64
04/28 16:00 0.87 16.57 280 12.83 12.57
04/28 17:00 0.32 16.93 367 13.42 12.66
04/28 18:00 0.00 17.28 451 13.06 12.65
04/28 19:00 0.00 17.98 618 12.99 12.64
04/28 20:00 0.00 18.59 802 12.82 12.58
04/28 21:00 0.00 19.05 1048 12.80 12.54
04/28 22:00 0.00 19.21 1134 12.77 12.53
04/28 23:00 0.00 19.17 1112 12.76 12.53
Data processed at Wed 29Apr2026 04:54 GMT

NOTICE: If you are parsing this page

Please convert to using our Data API. Starting early 2026 we will be migrating to: https://water.usace.army.mil with modern pages rendered in JavaScript. When this migration completes you will no longer be able to scrape this page! CWMSDataAPI (CDA)

Timeseries IDs (TSIDs)

TSIDs used from left to right in the data table
ATMB.Precip-Inc.Total.1Hour.1Hour.Ccp-Rev
ATMB.Stage.Inst.1Hour.0.Ccp-Rev
ATMB.Flow.Inst.1Hour.0.Ccp-Rev
ATMB.Volt-Battery.Inst.1Hour.0.Ccp-Rev
ATMB.Volt-Battery Load.Inst.1Hour.0.Ccp-Rev

                            

All information presented herein is the property of the government of the United States of America and may be revised or deleted at any time without prior notice. Dissemination of this information without the expressed written consent of the Public Affairs Office, Tulsa District U.S. Army Corps of Engineers is strictly prohibited. These data are gathered electronically and, as presented, have NOT undergone any form of quality control. These data are NOT guaranteed to be valid or correct.